Time;durP1;ratioP1;P1;durP2;ratioP2;P2;SDS_P1;SDS_P2;PMS_P1;PMS_P2;Temp;Humidity;BMP_temperature;BMP_pressure;BME280_temperature;BME280_humidity;BME280_pressure;Samples;Min_cycle;Max_cycle;Signal;HPM_P1;HPM_P2
2023/02/08 00:03:57;;;;;;;12.60;11.10;;;;;;;2.26;50.68;102371.50;10332705;28;20046;-71
2023/02/08 00:09:00;;;;;;;12.52;10.82;;;;;;;2.34;50.86;102368.78;10328977;28;20592;-70
2023/02/08 00:14:01;;;;;;;12.32;11.00;;;;;;;2.43;50.91;102366.91;10357326;28;20595;-72
2023/02/08 00:19:03;;;;;;;12.45;11.10;;;;;;;2.33;51.16;102369.66;10317505;28;20042;-70
2023/02/08 00:24:05;;;;;;;13.68;10.00;;;;;;;2.23;50.98;102364.50;10321243;28;20046;-72
2023/02/08 00:29:07;;;;;;;13.23;11.35;;;;;;;2.09;51.30;102364.69;10319457;28;20595;-70
2023/02/08 00:34:08;;;;;;;12.95;11.50;;;;;;;2.10;51.73;102362.91;10329352;28;20501;-71
2023/02/08 00:39:09;;;;;;;12.35;10.70;;;;;;;1.98;52.68;102361.28;10314172;28;20053;-71
2023/02/08 00:44:11;;;;;;;12.95;11.40;;;;;;;1.99;53.03;102365.66;10315789;28;20391;-71
2023/02/08 00:49:13;;;;;;;13.77;12.10;;;;;;;1.97;53.31;102364.81;10316381;28;20081;-72
2023/02/08 00:54:19;;;;;;;16.70;13.35;;;;;;;1.89;53.72;102364.00;10321646;28;20539;-74
2023/02/08 00:59:21;;;;;;;15.45;13.10;;;;;;;1.76;54.26;102363.28;10316584;28;20065;-71
2023/02/08 01:04:22;;;;;;;14.70;12.77;;;;;;;1.74;54.65;102365.94;10316305;28;20729;-71
2023/02/08 01:09:23;;;;;;;14.02;12.18;;;;;;;1.89;54.08;102367.53;10321415;28;20680;-73
2023/02/08 01:14:25;;;;;;;12.85;11.52;;;;;;;1.87;54.23;102364.03;10321455;28;20069;-70
2023/02/08 01:19:27;;;;;;;12.90;11.43;;;;;;;1.98;53.75;102366.53;10323678;28;20412;-71
2023/02/08 01:24:28;;;;;;;12.77;11.43;;;;;;;1.79;54.02;102357.13;10323775;28;20148;-71
2023/02/08 01:29:30;;;;;;;13.20;11.27;;;;;;;1.84;53.99;102364.06;10329250;28;20545;-72
2023/02/08 01:34:31;;;;;;;13.57;10.93;;;;;;;1.71;54.46;102350.22;10326978;28;20165;-70
2023/02/08 01:39:33;;;;;;;13.95;12.18;;;;;;;1.66;54.67;102346.75;10326167;28;20056;-69
2023/02/08 01:45:12;;;;;;;13.20;11.80;;;;;;;1.58;54.89;102359.94;10338722;28;20188;-70
2023/02/08 01:50:16;;;;;;;14.18;11.98;;;;;;;1.56;55.02;102351.22;10347244;28;20224;-70
2023/02/08 01:55:24;;;;;;;11.25;10.07;;;;;;;1.48;55.50;102352.19;10343895;28;20271;-71
2023/02/08 02:00:26;;;;;;;15.15;12.05;;;;;;;1.50;55.40;102355.66;10331220;28;20467;-70
2023/02/08 02:05:33;;;;;;;14.32;11.55;;;;;;;1.54;55.41;102352.13;10317608;28;20049;-72
2023/02/08 02:10:36;;;;;;;14.25;12.60;;;;;;;1.51;54.98;102358.25;10319671;28;20054;-73
2023/02/08 02:15:39;;;;;;;13.38;11.65;;;;;;;1.45;55.10;102352.19;10320807;28;20054;-71
2023/02/08 02:20:59;;;;;;;13.30;11.25;;;;;;;1.38;55.16;102354.00;10333748;28;20046;-72
2023/02/08 02:26:42;;;;;;;15.15;11.57;;;;;;;1.46;55.04;102359.22;10332253;28;20046;-74
2023/02/08 02:31:56;;;;;;;13.48;11.63;;;;;;;1.42;54.99;102360.97;10335225;28;20042;-72
2023/02/08 02:37:29;;;;;;;13.00;11.00;;;;;;;1.26;55.26;102344.47;10334498;28;20047;-72
2023/02/08 02:48:19;;;;;;;14.50;12.85;;;;;;;1.34;55.76;102360.19;10367080;28;20133;-72
2023/02/08 02:53:36;;;;;;;13.10;11.65;;;;;;;1.48;56.15;102344.31;10371390;28;20046;-73
2023/02/08 02:58:39;;;;;;;14.70;11.98;;;;;;;1.29;56.58;102335.72;10368086;28;20271;-75
2023/02/08 03:03:41;;;;;;;14.88;13.27;;;;;;;1.29;57.00;102336.59;10372166;28;20295;-76
2023/02/08 03:08:51;;;;;;;15.30;13.07;;;;;;;1.28;56.76;102347.97;10360509;28;20045;-75
2023/02/08 03:13:52;;;;;;;14.27;12.00;;;;;;;1.10;57.68;102338.50;10381324;28;20042;-73
2023/02/08 03:19:17;;;;;;;14.05;11.65;;;;;;;1.05;57.78;102349.03;10366524;28;20061;-74
2023/02/08 03:24:47;;;;;;;14.18;12.57;;;;;;;0.90;58.20;102338.63;10371732;28;20103;-73
2023/02/08 03:30:13;;;;;;;13.40;11.90;;;;;;;0.83;58.76;102336.94;10364354;28;20113;-73
2023/02/08 03:35:17;;;;;;;16.83;13.13;;;;;;;0.85;58.54;102340.41;10347813;28;20828;-71
2023/02/08 03:40:35;;;;;;;13.10;11.35;;;;;;;0.81;58.19;102331.72;10322456;28;20050;-72
2023/02/08 03:45:46;;;;;;;13.60;11.52;;;;;;;0.81;57.77;102349.16;10379310;28;20040;-71
2023/02/08 03:50:50;;;;;;;14.82;11.80;;;;;;;0.82;58.49;102354.41;10393813;28;20096;-69
2023/02/08 03:55:58;;;;;;;15.23;11.57;;;;;;;0.77;58.66;102342.22;10366001;28;20187;-70
2023/02/08 04:01:07;;;;;;;15.90;12.98;;;;;;;0.71;58.89;102353.63;10332975;28;20154;-73
2023/02/08 04:06:08;;;;;;;18.63;12.80;;;;;;;0.53;59.37;102347.56;10318862;28;20751;-71
2023/02/08 04:11:10;;;;;;;15.35;13.10;;;;;;;0.44;60.02;102355.50;10317752;28;20062;-71
2023/02/08 04:16:12;;;;;;;14.93;13.32;;;;;;;0.34;60.26;102338.94;10309705;28;20116;-70
2023/02/08 04:21:14;;;;;;;15.68;13.35;;;;;;;0.34;60.38;102349.41;10320378;28;20058;-69
2023/02/08 04:26:15;;;;;;;16.27;12.65;;;;;;;0.45;60.38;102338.00;10317680;28;20056;-72
2023/02/08 04:31:16;;;;;;;16.38;12.30;;;;;;;0.47;60.15;102354.63;10320407;28;20045;-72
2023/02/08 04:36:18;;;;;;;12.80;11.50;;;;;;;0.46;59.63;102348.47;10318960;28;20530;-73
2023/02/08 04:41:19;;;;;;;15.10;11.63;;;;;;;0.45;60.07;102351.09;10315016;28;20045;-70
2023/02/08 04:46:21;;;;;;;13.98;12.55;;;;;;;0.43;59.64;102345.03;10343306;28;20101;-74
2023/02/08 04:51:22;;;;;;;14.85;11.55;;;;;;;0.41;59.49;102338.94;10347289;28;20093;-74
2023/02/08 04:56:24;;;;;;;16.05;11.68;;;;;;;0.39;59.76;102338.03;10344996;28;20089;-73
2023/02/08 05:01:25;;;;;;;16.13;12.38;;;;;;;0.47;59.44;102338.91;10331578;28;20057;-73
2023/02/08 05:06:27;;;;;;;14.82;12.82;;;;;;;0.45;59.34;102330.16;10323141;28;20125;-73
2023/02/08 05:11:28;;;;;;;15.52;11.90;;;;;;;0.55;59.10;102331.84;10329390;28;20050;-73
2023/02/08 05:16:30;;;;;;;16.15;11.82;;;;;;;0.36;59.34;102320.56;10357436;28;20050;-74
2023/02/08 05:21:31;;;;;;;14.68;12.15;;;;;;;0.44;58.75;102328.44;10354723;28;20113;-73
2023/02/08 05:26:32;;;;;;;12.45;10.85;;;;;;;0.40;59.25;102337.19;10356369;28;20149;-72
2023/02/08 05:31:34;;;;;;;13.45;10.60;;;;;;;0.34;59.13;102332.81;10331114;28;20066;-71
2023/02/08 05:36:35;;;;;;;12.93;10.52;;;;;;;0.41;59.30;102331.06;10328706;28;20073;-72
2023/02/08 05:41:37;;;;;;;13.82;11.15;;;;;;;0.39;58.99;102332.81;10329612;28;20080;-72
2023/02/08 05:46:38;;;;;;;13.63;11.57;;;;;;;0.32;59.02;102327.59;10347107;28;20061;-72
2023/02/08 05:51:40;;;;;;;14.20;11.50;;;;;;;0.24;59.34;102337.25;10321809;28;20073;-72
2023/02/08 05:56:41;;;;;;;14.10;10.55;;;;;;;0.35;58.78;102335.44;10314515;28;20064;-72
2023/02/08 06:01:43;;;;;;;11.20;9.32;;;;;;;0.38;57.02;102338.94;10320025;28;20129;-70
2023/02/08 06:06:44;;;;;;;11.80;9.55;;;;;;;0.29;57.03;102340.72;10311922;28;20443;-70
2023/02/08 06:11:46;;;;;;;11.85;9.75;;;;;;;0.31;57.28;102346.81;10324192;28;20052;-72
2023/02/08 06:16:47;;;;;;;13.32;11.05;;;;;;;0.20;57.10;102340.75;10318301;28;20521;-67
2023/02/08 06:21:49;;;;;;;12.20;9.98;;;;;;;0.21;57.75;102359.94;10363089;28;20073;-68
2023/02/08 06:26:50;;;;;;;13.95;10.45;;;;;;;0.15;57.85;102351.25;10323942;28;20066;-68
2023/02/08 06:31:52;;;;;;;12.18;10.80;;;;;;;-0.14;58.12;102325.13;10327436;28;20121;-68
2023/02/08 06:36:53;;;;;;;13.90;10.98;;;;;;;0.12;58.21;102363.47;10334542;28;20417;-66
2023/02/08 06:41:55;;;;;;;15.32;10.57;;;;;;;0.14;58.37;102375.69;10338730;28;20090;-66
2023/02/08 06:46:56;;;;;;;12.25;10.23;;;;;;;0.08;57.68;102373.09;10326642;28;20050;-66
2023/02/08 06:51:59;;;;;;;11.60;9.63;;;;;;;0.07;57.88;102376.56;10327700;28;20492;-65
2023/02/08 06:57:01;;;;;;;16.77;12.07;;;;;;;0.13;57.55;102365.22;10318894;28;20054;-66
2023/02/08 07:02:02;;;;;;;12.60;11.27;;;;;;;0.19;57.36;102370.44;10323170;28;20538;-66
2023/02/08 07:07:04;;;;;;;14.18;11.02;;;;;;;0.20;56.60;102364.31;10326838;28;20142;-65
2023/02/08 07:12:07;;;;;;;13.40;10.20;;;;;;;0.18;56.71;102352.97;10323112;28;20054;-67
2023/02/08 07:17:11;;;;;;;12.48;11.18;;;;;;;0.23;56.83;102361.69;10317877;28;20187;-69
2023/02/08 07:22:12;;;;;;;12.30;10.18;;;;;;;0.38;57.01;102370.38;10315049;28;20062;-66
2023/02/08 07:27:14;;;;;;;11.50;9.23;;;;;;;0.49;56.45;102365.94;10322434;28;20050;-65
2023/02/08 07:32:15;;;;;;;12.40;9.52;;;;;;;0.64;55.62;102365.88;10321421;28;20080;-66
2023/02/08 07:37:17;;;;;;;13.35;10.00;;;;;;;0.80;55.23;102371.03;10351510;28;20067;-68
2023/02/08 07:42:18;;;;;;;12.50;10.35;;;;;;;1.00;54.74;102363.03;10358929;28;20049;-67
2023/02/08 07:47:20;;;;;;;14.00;9.98;;;;;;;1.11;54.36;102362.97;10327828;28;20083;-67
2023/02/08 07:52:21;;;;;;;12.98;9.68;;;;;;;1.29;53.72;102360.22;10321455;28;20055;-67
2023/02/08 07:57:22;;;;;;;14.13;10.05;;;;;;;1.47;54.22;102356.56;10330944;28;20050;-67
2023/02/08 08:02:24;;;;;;;13.30;10.02;;;;;;;1.41;53.20;102336.47;10339073;28;20441;-66
2023/02/08 08:07:25;;;;;;;12.07;9.80;;;;;;;1.60;53.11;102352.06;10345369;28;20049;-66
2023/02/08 08:12:26;;;;;;;14.55;9.63;;;;;;;1.70;52.75;102353.72;10337523;28;20142;-66
2023/02/08 08:17:28;;;;;;;13.68;9.77;;;;;;;1.88;52.48;102362.28;10348332;28;20135;-68
2023/02/08 08:22:30;;;;;;;11.23;9.60;;;;;;;2.05;51.74;102349.81;10381318;28;20057;-67
2023/02/08 08:27:33;;;;;;;12.10;9.48;;;;;;;2.16;49.81;102344.44;10366127;28;20054;-66
2023/02/08 08:32:37;;;;;;;9.45;8.45;;;;;;;2.34;49.20;102350.38;10324078;28;20516;-66
2023/02/08 08:37:38;;;;;;;11.35;9.13;;;;;;;2.34;48.44;102343.34;10324499;28;20137;-66
2023/02/08 08:42:39;;;;;;;10.00;9.00;;;;;;;2.41;48.53;102347.66;10320339;28;20054;-66
2023/02/08 08:47:41;;;;;;;10.75;8.43;;;;;;;2.38;48.43;102342.44;10327162;28;20327;-67
2023/02/08 08:52:42;;;;;;;12.18;8.98;;;;;;;2.45;47.56;102343.25;10323372;28;20060;-65
2023/02/08 08:57:44;;;;;;;11.02;8.65;;;;;;;2.48;47.77;102344.06;10317811;28;20210;-66
2023/02/08 09:02:45;;;;;;;13.68;8.60;;;;;;;2.72;46.14;102346.34;10331788;28;20492;-66
2023/02/08 09:07:46;;;;;;;11.95;8.43;;;;;;;2.92;44.99;102343.44;10315780;28;20547;-67
2023/02/08 09:12:48;;;;;;;11.75;8.45;;;;;;;3.07;44.29;102339.72;10320967;28;20050;-66
2023/02/08 09:17:49;;;;;;;10.60;8.40;;;;;;;3.26;44.08;102338.53;10309815;28;20112;-67
2023/02/08 09:22:52;;;;;;;10.38;7.85;;;;;;;3.59;42.88;102330.94;10309087;28;20062;-65
2023/02/08 09:27:53;;;;;;;11.73;9.27;;;;;;;4.01;41.76;102338.94;10317465;28;20138;-67
2023/02/08 09:32:55;;;;;;;13.18;8.95;;;;;;;4.38;41.54;102338.19;10314632;28;20408;-67
2023/02/08 09:38:01;;;;;;;12.32;9.48;;;;;;;4.78;40.42;102333.78;10315100;28;20053;-66
2023/02/08 09:43:11;;;;;;;12.63;9.05;;;;;;;5.20;40.09;102330.16;10312955;28;20397;-66
2023/02/08 09:48:21;;;;;;;13.82;10.60;;;;;;;5.68;39.02;102328.94;10309246;28;20045;-67
2023/02/08 09:53:29;;;;;;;12.68;9.30;;;;;;;6.29;37.84;102324.59;10312302;28;20088;-71
2023/02/08 09:58:48;;;;;;;15.25;9.85;;;;;;;6.98;37.04;102337.50;10308951;28;20140;-67
2023/02/08 10:04:26;;;;;;;12.68;10.68;;;;;;;7.90;34.51;102329.97;10311059;28;20038;-66
2023/02/08 10:09:28;;;;;;;11.65;10.35;;;;;;;10.61;30.60;102326.72;10308504;28;20050;-66
2023/02/08 10:15:04;;;;;;;13.93;10.32;;;;;;;12.61;27.87;102325.34;10311959;28;20559;-66
2023/02/08 10:20:24;;;;;;;12.27;10.52;;;;;;;12.86;25.69;102329.28;10305447;28;20054;-66
2023/02/08 10:25:59;;;;;;;13.20;10.13;;;;;;;12.45;26.29;102324.47;10312691;28;20148;-67
2023/02/08 10:31:27;;;;;;;12.80;10.40;;;;;;;11.80;27.23;102318.09;10310038;28;20716;-66
2023/02/08 10:36:34;;;;;;;12.48;10.82;;;;;;;11.94;26.65;102320.06;10304717;28;20046;-66
2023/02/08 10:41:36;;;;;;;11.95;10.75;;;;;;;13.21;25.63;102326.38;10319849;28;20486;-66
2023/02/08 10:46:47;;;;;;;13.10;10.18;;;;;;;15.31;22.84;102307.84;10315511;28;20562;-66
2023/02/08 10:51:49;;;;;;;10.75;9.65;;;;;;;18.43;19.97;102303.63;10314475;28;20146;-66
2023/02/08 10:57:03;;;;;;;13.10;11.23;;;;;;;20.16;17.74;102291.69;10320012;28;20599;-67
2023/02/08 11:02:17;;;;;;;11.88;10.68;;;;;;;21.24;17.00;102280.00;10320057;28;20057;-68
2023/02/08 11:07:20;;;;;;;12.32;11.05;;;;;;;21.75;15.74;102267.09;10311011;28;20065;-67
2023/02/08 11:12:22;;;;;;;11.00;10.00;;;;;;;22.68;16.00;102260.75;10312111;28;20052;-67
2023/02/08 11:17:27;;;;;;;11.03;9.93;;;;;;;22.98;14.92;102258.66;10316057;28;20105;-68
2023/02/08 11:22:30;;;;;;;11.18;10.00;;;;;;;23.35;14.38;102249.47;10306992;28;20152;-68
2023/02/08 11:27:35;;;;;;;11.73;10.63;;;;;;;24.14;14.48;102247.47;10310378;28;20661;-68
2023/02/08 11:32:36;;;;;;;11.02;9.93;;;;;;;25.29;13.34;102244.88;10313469;28;20130;-69
2023/02/08 11:37:45;;;;;;;10.50;9.50;;;;;;;25.58;12.30;102232.59;10309383;28;20054;-67
2023/02/08 11:42:46;;;;;;;10.85;9.77;;;;;;;26.55;12.10;102232.28;10309319;28;20054;-68
2023/02/08 11:47:48;;;;;;;11.32;10.23;;;;;;;27.42;11.42;102213.81;10307417;28;20057;-69
2023/02/08 11:52:56;;;;;;;11.18;9.43;;;;;;;27.36;11.00;102218.13;10309871;28;20267;-69
2023/02/08 11:58:00;;;;;;;11.45;10.50;;;;;;;28.23;11.32;102207.50;10310866;28;20132;-69
2023/02/08 12:03:11;;;;;;;10.90;9.90;;;;;;;28.31;10.89;102207.38;10315567;28;20053;-69
2023/02/08 12:08:35;;;;;;;10.30;9.30;;;;;;;28.55;10.55;102193.31;10306257;28;20067;-69
2023/02/08 12:13:46;;;;;;;9.95;9.05;;;;;;;29.56;10.12;102178.47;10314625;28;20878;-69
2023/02/08 12:19:05;;;;;;;9.95;9.05;;;;;;;29.40;9.87;102185.13;10343489;28;20089;-68
2023/02/08 12:24:26;;;;;;;8.95;8.15;;;;;;;30.03;9.63;102166.84;10371470;28;20847;-69
2023/02/08 12:29:58;;;;;;;9.25;8.35;;;;;;;30.58;8.91;102159.34;10309000;28;20520;-70
2023/02/08 12:35:18;;;;;;;8.60;7.80;;;;;;;30.08;9.04;102167.88;10313941;28;20195;-68
2023/02/08 12:40:59;;;;;;;8.40;7.70;;;;;;;30.35;8.58;102154.22;10312396;28;20266;-69
2023/02/08 12:46:21;;;;;;;7.13;6.53;;;;;;;30.35;8.16;102145.13;10303866;28;20057;-67
2023/02/08 12:51:53;;;;;;;7.68;6.97;;;;;;;30.72;7.67;102129.09;10280110;28;20131;-68
2023/02/08 12:56:57;;;;;;;6.60;6.00;;;;;;;30.85;7.77;102124.44;10310893;28;20050;-68
2023/02/08 13:02:15;;;;;;;6.68;6.07;;;;;;;31.16;7.46;102113.81;10303928;28;20120;-68
2023/02/08 13:07:28;;;;;;;5.22;4.72;;;;;;;30.36;7.08;102100.13;10305382;28;20693;-69
2023/02/08 13:12:35;;;;;;;6.25;5.57;;;;;;;30.94;7.69;102097.56;10302866;28;21204;-68
2023/02/08 13:17:56;;;;;;;5.97;5.47;;;;;;;31.89;7.38;102098.91;10303424;28;20069;-68
2023/02/08 13:23:22;;;;;;;6.93;6.30;;;;;;;31.93;7.47;102085.50;10299676;28;20571;-69
2023/02/08 13:28:25;;;;;;;6.93;6.32;;;;;;;31.34;7.49;102075.44;10318540;28;20144;-69
2023/02/08 13:33:42;;;;;;;7.28;6.68;;;;;;;31.32;7.63;102072.06;10340665;28;20604;-68
2023/02/08 13:39:05;;;;;;;6.35;5.75;;;;;;;30.87;7.72;102068.38;10320216;28;20409;-68
2023/02/08 13:44:18;;;;;;;6.35;5.78;;;;;;;31.05;7.80;102056.72;10307776;28;20681;-69
2023/02/08 13:49:41;;;;;;;3.63;3.33;;;;;;;30.91;7.55;102054.00;10317737;28;20050;-68
2023/02/08 13:54:42;;;;;;;4.18;3.70;;;;;;;31.18;7.31;102037.41;10306037;28;20042;-69
2023/02/08 14:00:21;;;;;;;4.22;3.83;;;;;;;30.30;7.32;102042.22;10322055;28;20053;-68
2023/02/08 14:05:58;;;;;;;5.03;4.55;;;;;;;28.48;8.03;102047.22;10323541;28;20049;-69
2023/02/08 14:11:14;;;;;;;4.70;4.18;;;;;;;28.46;8.22;102041.09;10323962;28;20053;-69
2023/02/08 14:16:31;;;;;;;4.55;3.97;;;;;;;28.52;8.39;102040.28;10323888;28;20584;-69
2023/02/08 14:21:37;;;;;;;4.50;4.20;;;;;;;28.60;8.31;102030.25;10313695;28;20046;-68
2023/02/08 14:26:38;;;;;;;5.55;4.35;;;;;;;28.46;8.43;102032.03;10302395;28;20111;-68
2023/02/08 14:31:42;;;;;;;4.95;4.50;;;;;;;27.96;8.51;102016.47;10316358;28;20050;-68
2023/02/08 14:36:44;;;;;;;4.60;3.92;;;;;;;27.79;8.91;102013.13;10315505;28;20058;-69
2023/02/08 14:41:50;;;;;;;5.25;4.65;;;;;;;27.97;8.60;102003.63;10304638;28;20062;-68
2023/02/08 14:46:51;;;;;;;4.30;3.33;;;;;;;28.14;8.62;101994.09;10312140;28;20680;-69
2023/02/08 14:51:58;;;;;;;4.65;3.80;;;;;;;27.80;8.65;101998.41;10295532;23;20053;-70
2023/02/08 14:57:03;;;;;;;5.60;3.53;;;;;;;27.71;9.03;102004.19;10314219;28;20054;-68
2023/02/08 15:02:14;;;;;;;4.30;3.75;;;;;;;27.48;9.07;101997.88;10308458;28;20056;-67
2023/02/08 15:07:40;;;;;;;4.75;3.13;;;;;;;26.98;9.38;101972.25;10316402;28;20183;-65
2023/02/08 15:12:45;;;;;;;3.58;3.28;;;;;;;26.87;9.72;101981.75;10319425;28;20706;-65
2023/02/08 15:17:50;;;;;;;4.80;3.83;;;;;;;24.83;11.07;101961.34;10314091;28;20049;-66
2023/02/08 15:23:16;;;;;;;4.93;4.47;;;;;;;17.82;15.36;101971.69;10316180;28;20061;-65
2023/02/08 15:28:21;;;;;;;5.13;4.63;;;;;;;15.07;19.03;101973.31;10312542;28;20041;-66
2023/02/08 15:33:23;;;;;;;6.55;4.72;;;;;;;13.33;20.56;101953.91;10313855;28;20050;-66
2023/02/08 15:38:27;;;;;;;6.73;5.17;;;;;;;12.27;22.09;101948.03;10316507;28;20282;-65
2023/02/08 15:43:28;;;;;;;5.37;4.70;;;;;;;11.58;23.07;101952.94;10317391;28;20145;-66
2023/02/08 15:48:32;;;;;;;6.80;5.38;;;;;;;11.09;23.44;101951.28;10316904;28;20048;-66
2023/02/08 15:53:34;;;;;;;7.03;4.67;;;;;;;10.55;23.98;101959.53;10318082;28;20141;-66
2023/02/08 15:58:42;;;;;;;6.15;4.85;;;;;;;10.02;25.31;101939.19;10314405;28;20535;-65
2023/02/08 16:03:59;;;;;;;7.47;4.95;;;;;;;9.54;26.36;101949.56;10317514;28;20049;-67
2023/02/08 16:09:02;;;;;;;7.22;5.03;;;;;;;9.44;26.49;101953.59;10309147;28;20055;-67
2023/02/08 16:14:04;;;;;;;7.32;4.93;;;;;;;9.13;27.34;101961.25;10347333;28;20453;-67
2023/02/08 16:19:21;;;;;;;6.82;5.75;;;;;;;8.85;28.19;101951.91;10319486;28;20052;-65
2023/02/08 16:24:26;;;;;;;8.35;6.20;;;;;;;8.58;28.83;101959.34;10311356;28;20133;-67
2023/02/08 16:29:31;;;;;;;6.47;5.35;;;;;;;8.25;29.40;101949.25;10315261;28;22196;-66
2023/02/08 16:34:36;;;;;;;;;;;;;;;8.14;30.07;101954.19;10312546;28;20211;-64
2023/02/08 16:39:49;;;;;;;7.85;6.38;;;;;;;7.98;30.27;101964.56;10307762;28;20026;-65
2023/02/08 16:44:56;;;;;;;9.90;7.20;;;;;;;7.84;30.78;101953.69;10307206;28;20389;-65
2023/02/08 16:49:58;;;;;;;9.00;6.78;;;;;;;7.57;30.65;101960.06;10313318;28;20056;-65
2023/02/08 16:55:00;;;;;;;9.30;6.63;;;;;;;7.20;30.93;101944.78;10314807;28;20050;-66
2023/02/08 17:00:11;;;;;;;11.70;8.02;;;;;;;7.23;31.81;101965.84;10306904;28;20046;-65
2023/02/08 17:05:13;;;;;;;10.30;7.90;;;;;;;7.10;32.06;101964.59;10310924;28;20046;-67
2023/02/08 17:10:22;;;;;;;8.25;6.72;;;;;;;6.87;32.71;101968.97;10311177;28;20528;-67
2023/02/08 17:15:24;;;;;;;13.23;8.20;;;;;;;6.68;33.05;101969.66;10311676;28;20065;-67
2023/02/08 17:20:28;;;;;;;10.40;7.55;;;;;;;6.56;33.11;101964.84;10307825;28;20096;-67
2023/02/08 17:25:32;;;;;;;9.83;7.07;;;;;;;6.49;34.19;101969.47;10305802;28;20210;-66
2023/02/08 17:30:40;;;;;;;8.77;7.23;;;;;;;6.37;34.27;101965.47;10303066;28;21231;-65
2023/02/08 17:35:41;;;;;;;9.77;7.43;;;;;;;6.28;34.58;101973.75;10306727;28;20654;-65
2023/02/08 17:40:44;;;;;;;11.90;7.90;;;;;;;6.18;35.03;101970.56;10311453;28;20046;-64
2023/02/08 17:45:45;;;;;;;9.98;8.80;;;;;;;6.11;35.24;101968.16;10306106;28;20061;-66
2023/02/08 17:50:49;;;;;;;9.50;7.80;;;;;;;5.84;36.22;101961.09;10310990;28;20053;-65
2023/02/08 17:55:51;;;;;;;10.23;8.20;;;;;;;5.81;36.65;101978.81;10320219;28;20425;-67
2023/02/08 18:00:54;;;;;;;10.13;7.95;;;;;;;5.69;36.82;101976.56;10317495;28;20057;-65
2023/02/08 18:05:57;;;;;;;9.77;7.55;;;;;;;5.42;37.59;101947.50;10322290;28;20508;-65
2023/02/08 18:11:03;;;;;;;11.88;8.65;;;;;;;5.38;37.93;101959.09;10320912;28;20061;-64
2023/02/08 18:16:12;;;;;;;11.45;9.23;;;;;;;5.27;37.73;101939.16;10320001;28;22784;-65
2023/02/08 18:21:16;;;;;;;11.02;8.60;;;;;;;5.31;38.05;101961.03;10319684;28;20104;-65
2023/02/08 18:26:20;;;;;;;10.37;8.27;;;;;;;5.21;38.45;101967.50;10318352;28;20144;-65
2023/02/08 18:31:23;;;;;;;9.60;8.27;;;;;;;5.04;38.45;101952.19;10316342;28;20637;-66
2023/02/08 18:36:24;;;;;;;18.45;9.50;;;;;;;4.94;38.59;101948.97;10329046;28;20049;-65
2023/02/08 18:41:28;;;;;;;11.40;9.05;;;;;;;4.84;38.68;101944.88;10327839;28;20053;-66
2023/02/08 18:46:29;;;;;;;12.52;9.48;;;;;;;4.93;38.82;101958.66;10331355;28;20049;-66
2023/02/08 18:51:31;;;;;;;14.02;11.38;;;;;;;4.80;39.30;101954.63;10319277;28;20475;-65
2023/02/08 18:56:34;;;;;;;13.57;10.30;;;;;;;4.71;39.30;101971.59;10317491;28;20061;-65
2023/02/08 19:01:35;;;;;;;13.90;10.52;;;;;;;4.62;39.46;101963.09;10315058;28;20046;-66
2023/02/08 19:06:37;;;;;;;12.88;9.82;;;;;;;4.58;39.59;101965.81;10328504;28;20348;-69
2023/02/08 19:11:39;;;;;;;11.52;8.90;;;;;;;4.47;39.44;101952.06;10319604;28;20077;-66
2023/02/08 19:16:41;;;;;;;11.38;8.82;;;;;;;4.48;40.04;101959.06;10311780;28;20088;-66
2023/02/08 19:21:43;;;;;;;11.23;9.30;;;;;;;4.59;39.36;101978.13;10307886;28;20045;-66
2023/02/08 19:26:45;;;;;;;36.60;26.15;;;;;;;4.57;39.93;101973.78;10311476;28;20046;-66
2023/02/08 19:31:47;;;;;;;15.82;12.57;;;;;;;4.47;40.31;101978.44;10306465;28;20148;-67
2023/02/08 19:36:53;;;;;;;9.70;8.77;;;;;;;4.35;40.45;101976.97;10308404;28;20062;-66
2023/02/08 19:41:57;;;;;;;11.50;9.03;;;;;;;4.20;41.03;101980.91;10304793;28;20052;-67
2023/02/08 19:46:59;;;;;;;11.68;9.45;;;;;;;3.97;40.85;101935.84;10311022;28;20064;-67
2023/02/08 19:52:00;;;;;;;10.82;8.85;;;;;;;4.18;41.12;101984.50;10312932;28;20042;-67
2023/02/08 19:57:02;;;;;;;11.77;9.10;;;;;;;4.10;41.25;101968.88;10308865;28;20189;-66
2023/02/08 20:02:04;;;;;;;10.77;9.15;;;;;;;4.15;41.35;101980.16;10308866;28;20196;-65
2023/02/08 20:07:07;;;;;;;10.77;9.65;;;;;;;4.15;41.43;101974.88;10307261;28;20516;-66
2023/02/08 20:12:08;;;;;;;15.23;11.90;;;;;;;3.93;41.52;101942.09;10304526;28;20412;-67
2023/02/08 20:17:10;;;;;;;32.08;22.08;;;;;;;3.94;41.73;101964.91;10303801;28;20066;-67
2023/02/08 20:22:11;;;;;;;13.95;10.63;;;;;;;3.88;41.92;101960.66;10305714;28;20180;-66
2023/02/08 20:27:12;;;;;;;10.00;8.85;;;;;;;3.57;41.99;101921.03;10305329;28;20138;-66
2023/02/08 20:32:14;;;;;;;13.43;10.93;;;;;;;3.71;42.47;101954.03;10306489;28;20064;-67
2023/02/08 20:37:19;;;;;;;13.82;10.68;;;;;;;3.66;42.70;101953.31;10306280;28;21297;-66
2023/02/08 20:42:21;;;;;;;12.63;9.60;;;;;;;3.75;42.75;101975.88;10308213;28;20080;-67
2023/02/08 20:47:22;;;;;;;16.35;11.05;;;;;;;3.60;42.83;101963.09;10322061;28;20049;-64
2023/02/08 20:52:24;;;;;;;13.90;11.18;;;;;;;3.47;43.66;101968.66;10308703;28;20066;-66
2023/02/08 20:57:25;;;;;;;12.85;10.55;;;;;;;3.39;43.74;101970.59;10309401;28;20111;-67
2023/02/08 21:02:27;;;;;;;15.00;12.45;;;;;;;3.35;43.98;101976.84;10322259;28;20074;-66
2023/02/08 21:07:28;;;;;;;14.85;13.10;;;;;;;3.25;44.24;101980.59;10309782;28;20070;-66
2023/02/08 21:12:29;;;;;;;17.10;13.90;;;;;;;3.21;44.63;101971.03;10305578;28;20527;-64
2023/02/08 21:17:34;;;;;;;15.85;12.63;;;;;;;3.13;44.36;101958.03;10305339;28;20058;-65
2023/02/08 21:22:36;;;;;;;14.95;12.98;;;;;;;3.23;44.68;101963.94;10305496;28;20124;-65
2023/02/08 21:27:37;;;;;;;14.90;12.13;;;;;;;3.07;44.48;101959.03;10303078;28;20057;-65
2023/02/08 21:32:40;;;;;;;16.20;13.15;;;;;;;2.93;45.09;101951.44;10302810;28;20264;-65
2023/02/08 21:37:41;;;;;;;16.08;12.43;;;;;;;2.92;45.18;101954.09;10301164;28;20129;-65
2023/02/08 21:42:43;;;;;;;15.70;12.45;;;;;;;2.87;45.22;101950.69;10302936;28;20051;-65
2023/02/08 21:47:45;;;;;;;14.13;12.13;;;;;;;2.80;45.31;101948.19;10301923;28;20054;-65
2023/02/08 21:58:07;;;;;;;16.40;12.75;;;;;;;2.56;45.55;101917.16;10308820;28;20069;-66
2023/02/08 22:03:08;;;;;;;17.10;12.52;;;;;;;2.52;45.80;101912.84;10310981;28;20046;-66
2023/02/08 22:08:11;;;;;;;15.18;12.80;;;;;;;2.72;45.80;101942.25;10302780;28;20177;-66
2023/02/08 22:13:12;;;;;;;15.57;12.95;;;;;;;2.72;45.69;101931.72;10307575;28;20064;-65
2023/02/08 22:18:14;;;;;;;16.10;12.52;;;;;;;2.53;45.90;101914.59;10299279;28;20085;-65
2023/02/08 22:23:16;;;;;;;18.05;13.35;;;;;;;2.53;46.48;101930.38;10302561;28;20166;-65
2023/02/08 22:28:17;;;;;;;16.50;14.20;;;;;;;2.37;46.06;101917.53;10309446;28;20046;-65
2023/02/08 22:33:19;;;;;;;17.02;13.63;;;;;;;2.24;46.57;101902.91;10304656;28;20046;-65
2023/02/08 22:38:22;;;;;;;20.08;14.18;;;;;;;2.45;46.66;101934.00;10310765;28;20331;-66
2023/02/08 22:43:24;;;;;;;17.73;13.68;;;;;;;2.33;46.70;101931.63;10309770;28;20521;-67
2023/02/08 22:48:26;;;;;;;20.33;14.48;;;;;;;2.30;46.78;101931.69;10314045;28;20045;-67
2023/02/08 22:53:27;;;;;;;16.73;13.18;;;;;;;2.23;47.08;101924.81;10311726;28;20054;-67
2023/02/08 22:58:28;;;;;;;15.00;13.32;;;;;;;2.14;47.34;101906.59;10314669;28;20046;-67
2023/02/08 23:03:30;;;;;;;17.50;14.90;;;;;;;2.24;47.12;101919.53;10312691;28;20048;-66
2023/02/08 23:08:32;;;;;;;20.65;14.48;;;;;;;2.39;47.71;101934.13;10315654;28;20500;-66
2023/02/08 23:13:34;;;;;;;17.58;14.05;;;;;;;2.29;47.68;101929.94;10309814;28;20077;-66
2023/02/08 23:18:35;;;;;;;20.98;16.40;;;;;;;2.16;47.77;101933.69;10312270;28;20077;-66
2023/02/08 23:23:37;;;;;;;19.30;14.88;;;;;;;1.96;47.90;101898.16;10311579;28;20046;-65
2023/02/08 23:28:39;;;;;;;15.30;13.63;;;;;;;1.93;48.47;101906.94;10338018;28;20046;-68
2023/02/08 23:33:41;;;;;;;20.85;15.32;;;;;;;2.30;48.62;101923.81;10311380;28;20133;-66